createdAt,value
2024-01-20T00:03:06.133Z,98182.91
2024-01-20T00:08:09.615Z,98169.34
2024-01-20T00:13:13.326Z,98183.81
2024-01-20T00:18:18.273Z,98193.28
2024-01-20T00:23:21.869Z,98191.63
2024-01-20T00:28:25.305Z,98201.13
2024-01-20T00:33:31.298Z,98191.69
2024-01-20T00:38:34.664Z,98203.78
2024-01-20T00:43:37.995Z,98222.69
2024-01-20T00:48:42.817Z,98219.22
2024-01-20T00:53:46.790Z,98250.06
2024-01-20T00:58:50.096Z,98237.22
2024-01-20T01:03:54.770Z,98236.25
2024-01-20T01:08:58.068Z,98232.72
2024-01-20T01:14:01.289Z,98236.25
2024-01-20T01:19:06.210Z,98232.03
2024-01-20T01:24:09.660Z,98253.38
2024-01-20T01:29:12.987Z,98246.44
2024-01-20T01:34:17.752Z,98248.25
2024-01-20T01:39:22.307Z,98241.53
2024-01-20T01:44:25.678Z,98252.91
2024-01-20T01:49:30.322Z,98259.13
2024-01-20T01:54:33.835Z,98268.69
2024-01-20T01:59:37.150Z,98271.00
2024-01-20T02:04:41.868Z,98278.34
2024-01-20T02:09:47.386Z,98274.59
2024-01-20T02:14:51.128Z,98263.38
2024-01-20T02:19:55.770Z,98270.53
2024-01-20T02:25:00.668Z,98273.19
2024-01-20T02:30:03.988Z,98270.63
2024-01-20T02:35:07.958Z,98265.53
2024-01-20T02:40:12.845Z,98276.84
2024-01-20T02:45:16.194Z,98270.09
2024-01-20T02:50:19.636Z,98267.56
2024-01-20T02:55:24.136Z,98266.53
2024-01-20T03:00:29.391Z,98271.75
2024-01-20T03:05:32.786Z,98278.72
2024-01-20T03:10:37.469Z,98293.41
2024-01-20T03:15:40.842Z,98284.53
2024-01-20T03:20:44.057Z,98289.53
2024-01-20T03:25:48.689Z,98277.53
2024-01-20T03:30:52.212Z,98269.03
2024-01-20T03:35:55.617Z,98279.50
2024-01-20T03:41:00.336Z,98283.97
2024-01-20T03:46:03.695Z,98303.03
2024-01-20T03:51:07.038Z,98316.78
2024-01-20T03:56:11.742Z,98316.81
2024-01-20T04:01:15.090Z,98325.34
2024-01-20T04:06:18.506Z,98338.28
2024-01-20T04:11:23.280Z,98330.59
2024-01-20T04:16:26.672Z,98341.75
2024-01-20T04:21:29.881Z,98342.63
2024-01-20T04:26:34.541Z,98323.72
2024-01-20T04:31:37.936Z,98332.31
2024-01-20T04:36:41.177Z,98324.56
2024-01-20T04:41:45.789Z,98321.09
2024-01-20T04:46:49.020Z,98320.19
2024-01-20T04:51:52.604Z,98327.78
2024-01-20T04:56:57.502Z,98319.88
2024-01-20T05:02:00.752Z,98326.56
2024-01-20T05:07:04.252Z,98330.03
2024-01-20T05:12:09.528Z,98339.31
2024-01-20T05:17:12.841Z,98341.88
2024-01-20T05:22:16.291Z,98341.03
2024-01-20T05:27:20.942Z,98357.41
2024-01-20T05:32:24.312Z,98358.22
2024-01-20T05:37:27.871Z,98367.63
2024-01-20T05:42:32.617Z,98365.94
2024-01-20T05:47:35.961Z,98370.22
2024-01-20T05:52:39.232Z,98372.81
2024-01-20T05:57:44.990Z,98380.50
2024-01-20T06:02:48.331Z,98376.19
2024-01-20T06:07:52.076Z,98382.19
2024-01-20T06:12:56.694Z,98383.00
2024-01-20T06:18:00.164Z,98385.69
2024-01-20T06:23:03.482Z,98394.16
2024-01-20T06:28:08.172Z,98389.88
2024-01-20T06:33:11.608Z,98406.19
2024-01-20T06:38:15.020Z,98410.50
2024-01-20T06:43:19.665Z,98413.16
2024-01-20T06:48:23.087Z,98414.09
2024-01-20T06:53:26.414Z,98414.22
2024-01-20T06:58:31.075Z,98426.50
2024-01-20T07:03:34.870Z,98437.50
2024-01-20T07:08:38.254Z,98441.16
2024-01-20T07:13:42.982Z,98445.41
2024-01-20T07:18:46.579Z,98449.84
2024-01-20T07:23:49.996Z,98456.69
2024-01-20T07:28:54.679Z,98461.03
2024-01-20T07:33:57.974Z,98469.31
2024-01-20T07:39:01.352Z,98470.97
2024-01-20T07:44:06.504Z,98473.34
2024-01-20T07:49:10.199Z,98477.53
2024-01-20T07:54:13.798Z,98486.97
2024-01-20T07:59:18.638Z,98502.63
2024-01-20T08:04:21.877Z,98498.28
2024-01-20T08:09:25.454Z,98504.31
2024-01-20T08:14:30.158Z,98523.94
2024-01-20T08:19:33.638Z,98537.66
2024-01-20T08:24:37.158Z,98548.88
2024-01-20T08:29:41.981Z,98552.81
2024-01-20T08:34:46.624Z,98553.00
2024-01-20T08:39:50.051Z,98551.00
2024-01-20T08:44:56.938Z,98567.44
2024-01-20T08:50:00.529Z,98574.34
2024-01-20T08:55:04.018Z,98569.06
2024-01-20T09:00:12.491Z,98578.44
2024-01-20T09:05:19.058Z,98588.00
2024-01-20T09:10:22.524Z,98593.97
2024-01-20T09:15:27.224Z,98601.53
2024-01-20T09:20:30.853Z,98597.56
2024-01-20T09:25:34.180Z,98588.09
2024-01-20T09:30:40.507Z,98602.66
2024-01-20T09:35:44.521Z,98594.47
2024-01-20T09:40:48.106Z,98601.78
2024-01-20T09:45:53.861Z,98604.56
2024-01-20T09:50:57.290Z,98604.16
2024-01-20T09:56:00.686Z,98595.06
2024-01-20T10:01:06.030Z,98586.31
2024-01-20T10:06:09.348Z,98583.78
2024-01-20T10:11:12.565Z,98598.97
2024-01-20T10:16:17.217Z,98600.41
2024-01-20T10:21:21.387Z,98595.81
2024-01-20T10:26:26.813Z,98582.34
2024-01-20T10:31:33.776Z,98600.88
2024-01-20T10:36:37.033Z,98589.34
2024-01-20T10:41:42.988Z,98601.47
2024-01-20T10:46:48.445Z,98613.69
2024-01-20T10:51:52.604Z,98607.44
2024-01-20T10:56:56.297Z,98611.50
2024-01-20T11:02:01.146Z,98598.56
2024-01-20T11:07:04.469Z,98602.22
2024-01-20T11:12:09.206Z,98595.84
2024-01-20T11:17:15.234Z,98591.25
2024-01-20T11:22:32.232Z,98576.75
2024-01-20T11:27:45.944Z,98582.59
2024-01-20T11:32:51.215Z,98580.84
2024-01-20T11:37:55.942Z,98573.00
2024-01-20T11:43:06.920Z,98574.16
2024-01-20T11:48:15.044Z,98565.06
2024-01-20T11:53:21.541Z,98559.63
2024-01-20T11:58:24.997Z,98563.63
2024-01-20T12:03:30.150Z,98571.69
2024-01-20T12:08:33.582Z,98567.63
2024-01-20T12:13:37.068Z,98561.22
2024-01-20T12:18:41.996Z,98542.75
2024-01-20T12:23:46.254Z,98542.06
2024-01-20T12:28:51.723Z,98537.41
2024-01-20T12:33:56.788Z,98530.19
2024-01-20T12:39:00.236Z,98533.16
2024-01-20T12:44:03.555Z,98538.47
2024-01-20T12:49:08.311Z,98542.47
2024-01-20T12:54:11.708Z,98542.16
2024-01-20T12:59:15.013Z,98545.97
2024-01-20T13:04:19.676Z,98539.53
2024-01-20T13:09:23.244Z,98537.72
2024-01-20T13:14:26.838Z,98530.81
2024-01-20T13:19:31.685Z,98535.38
2024-01-20T13:24:34.972Z,98535.88
2024-01-20T13:29:38.265Z,98532.22
2024-01-20T13:34:43.163Z,98530.06
2024-01-20T13:39:46.829Z,98527.44
2024-01-20T13:44:50.180Z,98539.78
2024-01-20T13:49:54.880Z,98538.41
2024-01-20T13:54:58.098Z,98543.59
2024-01-20T14:00:01.978Z,98536.09
2024-01-20T14:05:12.287Z,98538.78
2024-01-20T14:10:15.859Z,98524.63
2024-01-20T14:15:19.606Z,98532.72
2024-01-20T14:20:24.589Z,98527.66
2024-01-20T14:25:27.845Z,98522.72
2024-01-20T14:30:31.069Z,98528.81
2024-01-20T14:35:35.893Z,98539.50
2024-01-20T14:40:39.259Z,98544.59
2024-01-20T14:45:42.572Z,98551.09
2024-01-20T14:50:47.302Z,98552.53
2024-01-20T14:55:50.694Z,98567.06
2024-01-20T15:00:54.874Z,98573.25
2024-01-20T15:06:00.077Z,98573.91
2024-01-20T15:11:04.169Z,98583.63
2024-01-20T15:16:07.969Z,98589.88
2024-01-20T15:21:12.708Z,98586.94
2024-01-20T15:26:16.766Z,98590.06
2024-01-20T15:31:20.079Z,98603.34
2024-01-20T15:36:24.887Z,98605.00
2024-01-20T15:41:28.231Z,98607.13
2024-01-20T15:46:32.058Z,98606.19
2024-01-20T15:51:39.607Z,98605.59
2024-01-20T15:56:43.157Z,98629.28
2024-01-20T16:01:46.568Z,98626.97
2024-01-20T16:06:51.343Z,98630.47
2024-01-20T16:11:54.709Z,98629.13
2024-01-20T16:16:57.914Z,98635.16
2024-01-20T16:22:02.434Z,98637.88
2024-01-20T16:27:06.524Z,98638.72
2024-01-20T16:32:10.743Z,98644.06
2024-01-20T16:37:15.736Z,98645.91
2024-01-20T16:42:19.216Z,98651.91
2024-01-20T16:47:22.927Z,98656.28
2024-01-20T16:52:27.817Z,98651.13
2024-01-20T16:57:31.123Z,98658.16
2024-01-20T17:02:34.253Z,98657.19
2024-01-20T17:07:38.892Z,98661.44
2024-01-20T17:12:42.326Z,98650.22
2024-01-20T17:17:45.600Z,98646.03
2024-01-20T17:22:50.503Z,98651.31
2024-01-20T17:27:53.857Z,98653.84
2024-01-20T17:32:57.530Z,98658.16
2024-01-20T17:38:02.109Z,98651.09
2024-01-20T17:43:05.542Z,98652.00
2024-01-20T17:48:10.423Z,98655.44
2024-01-20T17:53:15.474Z,98652.00
2024-01-20T17:58:19.235Z,98659.03
2024-01-20T18:03:22.468Z,98661.69
2024-01-20T18:08:27.833Z,98660.94
2024-01-20T18:13:31.097Z,98675.09
2024-01-20T18:18:34.433Z,98680.41
2024-01-20T18:23:41.096Z,98682.28
2024-01-20T18:28:44.644Z,98680.59
2024-01-20T18:33:48.076Z,98687.50
2024-01-20T18:38:53.463Z,98694.34
2024-01-20T18:43:57.018Z,98703.75
2024-01-20T18:49:00.587Z,98710.66
2024-01-20T18:54:05.720Z,98710.66
2024-01-20T18:59:09.807Z,98719.13
2024-01-20T19:04:13.413Z,98710.38
2024-01-20T19:09:18.622Z,98716.25
2024-01-20T19:14:21.895Z,98714.38
2024-01-20T19:19:25.312Z,98705.72
2024-01-20T19:24:30.250Z,98708.16
2024-01-20T19:29:34.035Z,98715.88
2024-01-20T19:34:37.711Z,98709.78
2024-01-20T19:39:44.245Z,98708.69
2024-01-20T19:44:48.544Z,98708.63
2024-01-20T19:49:54.603Z,98707.69
2024-01-20T19:54:59.519Z,98699.97
2024-01-20T20:00:05.719Z,98701.47
2024-01-20T20:05:15.883Z,98715.22
2024-01-20T20:10:21.161Z,98710.78
2024-01-20T20:15:24.529Z,98711.66
2024-01-20T20:20:30.477Z,98713.22
2024-01-20T20:25:35.161Z,98706.22
2024-01-20T20:30:38.537Z,98706.25
2024-01-20T20:35:41.982Z,98713.78
2024-01-20T20:40:49.256Z,98715.13
2024-01-20T20:45:53.426Z,98698.03
2024-01-20T20:50:57.136Z,98698.72
2024-01-20T20:56:02.043Z,98691.97
2024-01-20T21:01:05.661Z,98690.09
2024-01-20T21:06:09.238Z,98681.66
2024-01-20T21:11:14.110Z,98686.59
2024-01-20T21:16:18.451Z,98683.22
2024-01-20T21:21:21.941Z,98683.19
2024-01-20T21:26:26.693Z,98679.63
2024-01-20T21:31:30.198Z,98674.44
2024-01-20T21:36:33.832Z,98669.22
2024-01-20T21:41:38.923Z,98663.78
2024-01-20T21:46:42.709Z,98674.00
2024-01-20T21:51:46.125Z,98680.56
2024-01-20T21:56:50.841Z,98669.19
2024-01-20T22:01:54.341Z,98675.94
2024-01-20T22:06:57.754Z,98680.13
2024-01-20T22:12:02.501Z,98664.50
2024-01-20T22:17:06.424Z,98676.56
2024-01-20T22:22:10.890Z,98666.88
2024-01-20T22:27:15.766Z,98673.47
2024-01-20T22:32:19.353Z,98677.69
2024-01-20T22:37:22.636Z,98675.19
2024-01-20T22:42:27.529Z,98673.19
2024-01-20T22:47:31.448Z,98671.53
2024-01-20T22:52:34.833Z,98663.91
2024-01-20T22:57:41.088Z,98651.72
2024-01-20T23:02:44.805Z,98649.88
2024-01-20T23:07:49.703Z,98656.44
2024-01-20T23:12:54.540Z,98649.75
2024-01-20T23:17:57.965Z,98654.78
2024-01-20T23:23:01.213Z,98652.03
2024-01-20T23:28:06.167Z,98648.47
2024-01-20T23:33:09.566Z,98647.50
2024-01-20T23:38:12.912Z,98638.22
2024-01-20T23:43:17.540Z,98638.91
2024-01-20T23:48:21.259Z,98630.47
2024-01-20T23:53:24.676Z,98621.81
2024-01-20T23:58:29.381Z,98614.84
